createdAt,value
2023-05-21T00:01:16.681Z,21.16
2023-05-21T00:03:21.850Z,21.16
2023-05-21T00:05:26.931Z,21.15
2023-05-21T00:07:31.761Z,21.15
2023-05-21T00:09:38.387Z,21.15
2023-05-21T00:11:45.917Z,21.14
2023-05-21T00:13:50.836Z,21.13
2023-05-21T00:15:56.019Z,21.13
2023-05-21T00:18:01.028Z,21.13
2023-05-21T00:20:09.168Z,21.11
2023-05-21T00:22:14.467Z,21.09
2023-05-21T00:24:19.273Z,21.08
2023-05-21T00:26:24.420Z,21.08
2023-05-21T00:28:35.336Z,21.08
2023-05-21T00:30:40.352Z,21.07
2023-05-21T00:32:45.404Z,21.07
2023-05-21T00:34:50.806Z,21.06
2023-05-21T00:36:56.042Z,21.05
2023-05-21T00:39:02.622Z,21.03
2023-05-21T00:41:07.864Z,21.03
2023-05-21T00:43:14.493Z,21.01
2023-05-21T00:45:24.288Z,20.99
2023-05-21T00:47:29.888Z,20.99
2023-05-21T00:49:35.330Z,21.00
2023-05-21T00:51:40.372Z,20.98
2023-05-21T00:53:47.614Z,20.98
2023-05-21T00:55:53.822Z,20.97
2023-05-21T00:57:58.855Z,20.97
2023-05-21T01:00:05.026Z,20.96
2023-05-21T01:02:14.492Z,20.93
2023-05-21T01:04:20.626Z,20.93
2023-05-21T01:06:25.490Z,20.92
2023-05-21T01:08:30.947Z,20.91
2023-05-21T01:10:36.112Z,20.90
2023-05-21T01:12:42.844Z,20.89
2023-05-21T01:14:48.285Z,20.89
2023-05-21T01:16:53.808Z,20.89
2023-05-21T01:19:03.619Z,20.88
2023-05-21T01:21:09.953Z,20.87
2023-05-21T01:23:18.025Z,20.85
2023-05-21T01:25:23.131Z,20.83
2023-05-21T01:27:27.949Z,20.83
2023-05-21T01:29:32.910Z,20.81
2023-05-21T01:31:45.279Z,20.79
2023-05-21T01:33:52.880Z,20.75
2023-05-21T01:36:02.866Z,20.74
2023-05-21T01:38:15.195Z,20.73
2023-05-21T01:40:28.771Z,20.71
2023-05-21T01:42:35.111Z,20.70
2023-05-21T01:44:40.702Z,20.70
2023-05-21T01:46:45.709Z,20.69
2023-05-21T01:48:51.901Z,20.69
2023-05-21T01:50:58.218Z,20.69
2023-05-21T01:53:04.142Z,20.67
2023-05-21T01:55:09.809Z,20.67
2023-05-21T01:57:17.331Z,20.66
2023-05-21T01:59:22.389Z,20.65
2023-05-21T02:01:27.277Z,20.66
2023-05-21T02:03:32.573Z,20.65
2023-05-21T02:05:37.864Z,20.64
2023-05-21T02:07:44.039Z,20.63
2023-05-21T02:09:49.153Z,20.62
2023-05-21T02:11:55.957Z,20.61
2023-05-21T02:14:04.102Z,20.58
2023-05-21T02:16:10.404Z,20.57
2023-05-21T02:18:17.086Z,20.55
2023-05-21T02:20:23.009Z,20.53
2023-05-21T02:22:27.854Z,20.52
2023-05-21T02:24:32.850Z,20.52
2023-05-21T02:26:37.676Z,20.50
2023-05-21T02:28:42.538Z,20.49
2023-05-21T02:30:49.953Z,20.48
2023-05-21T02:32:55.130Z,20.49
2023-05-21T02:35:00.131Z,20.47
2023-05-21T02:37:05.063Z,20.48
2023-05-21T02:39:09.876Z,20.47
2023-05-21T02:41:15.144Z,20.45
2023-05-21T02:43:21.038Z,20.43
2023-05-21T02:45:25.993Z,20.42
2023-05-21T02:47:33.919Z,20.40
2023-05-21T02:49:39.154Z,20.39
2023-05-21T02:51:44.133Z,20.36
2023-05-21T02:53:49.015Z,20.33
2023-05-21T02:55:54.152Z,20.33
2023-05-21T02:57:59.077Z,20.32
2023-05-21T03:00:05.287Z,20.28
2023-05-21T03:02:10.837Z,20.26
2023-05-21T03:04:18.657Z,20.25
2023-05-21T03:06:23.474Z,20.24
2023-05-21T03:08:28.385Z,20.23
2023-05-21T03:10:33.365Z,20.23
2023-05-21T03:12:38.214Z,20.23
2023-05-21T03:14:44.251Z,20.22
2023-05-21T03:16:49.391Z,20.21
2023-05-21T03:18:56.123Z,20.21
2023-05-21T03:21:04.594Z,20.19
2023-05-21T03:23:09.807Z,20.18
2023-05-21T03:25:15.001Z,20.16
2023-05-21T03:27:19.923Z,20.14
2023-05-21T03:29:26.144Z,20.14
2023-05-21T03:31:31.176Z,20.12
2023-05-21T03:33:47.653Z,20.11
2023-05-21T03:36:06.175Z,20.11
2023-05-21T03:38:14.793Z,20.10
2023-05-21T03:40:20.086Z,20.09
2023-05-21T03:42:25.015Z,20.09
2023-05-21T03:44:33.002Z,20.08
2023-05-21T03:46:58.062Z,20.06
2023-05-21T03:49:08.747Z,20.04
2023-05-21T03:51:20.343Z,20.04
2023-05-21T03:53:25.786Z,20.05
2023-05-21T03:55:31.137Z,20.02
2023-05-21T03:57:36.105Z,20.02
2023-05-21T03:59:40.936Z,20.00
2023-05-21T04:01:46.064Z,19.99
2023-05-21T04:03:54.083Z,19.98
2023-05-21T04:06:01.811Z,19.99
2023-05-21T04:08:09.299Z,19.98
2023-05-21T04:10:15.042Z,19.99
2023-05-21T04:12:20.424Z,19.99
2023-05-21T04:14:26.205Z,20.01
2023-05-21T04:16:31.378Z,20.02
2023-05-21T04:18:36.308Z,20.01
2023-05-21T04:20:41.580Z,20.01
2023-05-21T04:22:46.490Z,20.01
2023-05-21T04:24:54.803Z,20.00
2023-05-21T04:27:04.720Z,19.99
2023-05-21T04:29:10.116Z,20.01
2023-05-21T04:31:15.909Z,20.01
2023-05-21T04:33:20.948Z,20.00
2023-05-21T04:35:26.291Z,20.00
2023-05-21T04:37:31.643Z,20.01
2023-05-21T04:39:37.085Z,20.01
2023-05-21T04:41:45.103Z,20.00
2023-05-21T04:43:49.993Z,20.01
2023-05-21T04:45:55.227Z,20.01
2023-05-21T04:48:03.263Z,20.00
2023-05-21T04:50:10.670Z,20.00
2023-05-21T04:52:15.993Z,19.99
2023-05-21T04:54:21.517Z,19.99
2023-05-21T04:56:26.628Z,19.98
2023-05-21T04:58:34.750Z,19.98
2023-05-21T05:00:42.441Z,19.99
2023-05-21T05:02:47.534Z,20.00
2023-05-21T05:04:52.658Z,20.00
2023-05-21T05:06:57.550Z,20.00
2023-05-21T05:09:02.735Z,20.00
2023-05-21T05:11:08.792Z,20.00
2023-05-21T05:13:13.899Z,20.01
2023-05-21T05:15:21.471Z,19.98
2023-05-21T05:17:27.695Z,20.01
2023-05-21T05:19:32.731Z,20.02
2023-05-21T05:21:37.985Z,20.04
2023-05-21T05:23:42.879Z,20.05
2023-05-21T05:25:47.814Z,20.04
2023-05-21T05:27:52.802Z,20.04
2023-05-21T05:29:57.690Z,20.05
2023-05-21T05:32:05.231Z,20.06
2023-05-21T05:34:10.105Z,20.08
2023-05-21T05:36:16.729Z,20.09
2023-05-21T05:38:21.950Z,20.11
2023-05-21T05:40:26.751Z,20.11
2023-05-21T05:42:32.113Z,20.11
2023-05-21T05:44:40.236Z,20.12
2023-05-21T05:46:45.977Z,20.12
2023-05-21T05:48:53.510Z,20.13
2023-05-21T05:50:58.447Z,20.15
2023-05-21T05:53:04.565Z,20.17
2023-05-21T05:55:12.265Z,20.20
2023-05-21T05:57:17.365Z,20.22
2023-05-21T05:59:24.321Z,20.23
2023-05-21T06:01:34.556Z,20.23
2023-05-21T06:03:39.798Z,20.24
2023-05-21T06:05:52.783Z,20.25
2023-05-21T06:07:58.071Z,20.27
2023-05-21T06:10:03.191Z,20.28
2023-05-21T06:12:12.266Z,20.30
2023-05-21T06:14:19.689Z,20.30
2023-05-21T06:16:24.649Z,20.31
2023-05-21T06:18:31.121Z,20.32
2023-05-21T06:20:36.032Z,20.34
2023-05-21T06:22:44.232Z,20.35
2023-05-21T06:24:49.237Z,20.37
2023-05-21T06:26:54.206Z,20.37
2023-05-21T06:29:00.156Z,20.40
2023-05-21T06:31:04.995Z,20.40
2023-05-21T06:33:11.795Z,20.42
2023-05-21T06:35:16.908Z,20.44
2023-05-21T06:37:25.914Z,20.45
2023-05-21T06:39:34.014Z,20.43
2023-05-21T06:41:39.033Z,20.45
2023-05-21T06:44:01.566Z,20.46
2023-05-21T06:46:24.821Z,20.39
2023-05-21T06:48:30.754Z,20.45
2023-05-21T06:50:36.135Z,20.48
2023-05-21T06:52:41.146Z,20.52
2023-05-21T06:54:48.787Z,20.54
2023-05-21T06:56:53.832Z,20.56
2023-05-21T06:58:59.578Z,20.58
2023-05-21T07:01:06.220Z,20.63
2023-05-21T07:03:11.485Z,20.65
2023-05-21T07:05:16.381Z,20.67
2023-05-21T07:07:21.514Z,20.70
2023-05-21T07:09:26.783Z,20.73
2023-05-21T07:11:34.387Z,20.75
2023-05-21T07:13:40.928Z,20.76
2023-05-21T07:15:45.965Z,20.78
2023-05-21T07:17:51.363Z,20.81
2023-05-21T07:19:56.718Z,20.84
2023-05-21T07:22:02.628Z,20.87
2023-05-21T07:24:07.663Z,20.90
2023-05-21T07:26:16.215Z,20.92
2023-05-21T07:28:24.086Z,20.93
2023-05-21T07:30:28.885Z,20.98
2023-05-21T07:32:34.006Z,20.98
2023-05-21T07:34:38.870Z,21.02
2023-05-21T07:36:43.934Z,21.03
2023-05-21T07:38:49.867Z,21.06
2023-05-21T07:40:57.056Z,21.10
2023-05-21T07:43:02.249Z,21.14
2023-05-21T07:45:12.516Z,21.18
2023-05-21T07:47:20.705Z,21.22
2023-05-21T07:49:25.954Z,21.24
2023-05-21T07:51:31.515Z,21.28
2023-05-21T07:53:36.757Z,21.32
2023-05-21T07:55:48.132Z,21.35
2023-05-21T07:57:56.797Z,21.39
2023-05-21T08:00:09.704Z,21.44
2023-05-21T08:02:22.752Z,21.47
2023-05-21T08:04:28.257Z,21.52
2023-05-21T08:06:34.355Z,21.57
2023-05-21T08:08:39.874Z,21.63
2023-05-21T08:10:44.853Z,21.68
2023-05-21T08:12:49.907Z,21.73
2023-05-21T08:14:55.677Z,21.77
2023-05-21T08:17:01.453Z,21.83
2023-05-21T08:19:10.243Z,21.89
2023-05-21T08:21:16.032Z,21.94
2023-05-21T08:23:21.646Z,21.99
2023-05-21T08:25:31.120Z,22.07
2023-05-21T08:27:38.675Z,22.12
2023-05-21T08:29:43.825Z,22.18
2023-05-21T08:31:48.862Z,22.23
2023-05-21T08:33:54.426Z,22.29
2023-05-21T08:36:11.399Z,22.32
2023-05-21T08:38:23.026Z,22.36
2023-05-21T08:40:41.770Z,22.42
2023-05-21T08:42:48.486Z,22.47
2023-05-21T08:45:02.269Z,22.52
2023-05-21T08:47:10.618Z,22.57
2023-05-21T08:49:17.745Z,22.62
2023-05-21T08:51:25.542Z,22.66
2023-05-21T08:53:31.602Z,22.71
2023-05-21T08:55:39.100Z,22.77
2023-05-21T08:57:46.874Z,22.81
2023-05-21T08:59:54.573Z,22.88
2023-05-21T09:02:04.942Z,22.97
2023-05-21T09:04:21.197Z,23.08
2023-05-21T09:06:34.357Z,23.21
2023-05-21T09:08:46.663Z,23.35
2023-05-21T09:11:04.709Z,23.52
2023-05-21T09:13:17.496Z,23.68
2023-05-21T09:15:23.056Z,23.82
2023-05-21T09:17:28.148Z,23.96
2023-05-21T09:19:41.373Z,24.10
2023-05-21T09:21:49.094Z,24.24
2023-05-21T09:23:59.321Z,24.37
2023-05-21T09:26:04.498Z,24.48
2023-05-21T09:28:15.221Z,24.60
2023-05-21T09:30:24.808Z,24.70
2023-05-21T09:32:31.981Z,24.80
2023-05-21T09:34:39.097Z,24.90
2023-05-21T09:36:44.482Z,25.01
2023-05-21T09:38:57.981Z,25.08
2023-05-21T09:41:07.397Z,25.18
2023-05-21T09:43:17.074Z,25.27
2023-05-21T09:45:22.758Z,25.39
2023-05-21T09:47:29.532Z,25.50
2023-05-21T09:49:35.141Z,25.61
2023-05-21T09:51:41.925Z,25.73
2023-05-21T09:53:51.910Z,25.85
2023-05-21T09:56:01.293Z,25.95
2023-05-21T09:58:06.401Z,26.06
2023-05-21T10:00:13.409Z,26.17
2023-05-21T10:02:21.122Z,26.25
2023-05-21T10:04:26.695Z,26.34
2023-05-21T10:06:33.894Z,26.43
2023-05-21T10:08:40.271Z,26.52
2023-05-21T10:10:46.665Z,26.60
2023-05-21T10:12:58.033Z,26.68
2023-05-21T10:15:04.387Z,26.78
2023-05-21T10:17:09.674Z,26.87
2023-05-21T10:19:16.098Z,26.97
2023-05-21T10:21:21.694Z,27.07
2023-05-21T10:23:26.878Z,27.16
2023-05-21T10:25:33.932Z,27.25
2023-05-21T10:27:39.891Z,27.35
2023-05-21T10:29:48.321Z,27.43
2023-05-21T10:31:56.107Z,27.50
2023-05-21T10:34:02.042Z,27.58
2023-05-21T10:36:08.148Z,27.65
2023-05-21T10:38:14.130Z,27.70
2023-05-21T10:40:19.177Z,27.75
2023-05-21T10:42:46.674Z,27.78
2023-05-21T10:45:07.295Z,27.79
2023-05-21T10:47:34.791Z,27.79
2023-05-21T10:49:57.550Z,27.78
2023-05-21T10:52:11.286Z,27.76
2023-05-21T10:54:54.600Z,27.73
2023-05-21T10:57:06.564Z,27.59
2023-05-21T10:59:22.395Z,27.59
2023-05-21T11:01:34.118Z,27.58
2023-05-21T11:03:40.736Z,27.57
2023-05-21T11:05:55.557Z,27.56
2023-05-21T11:08:01.776Z,27.55
2023-05-21T11:10:34.587Z,27.51
2023-05-21T11:12:39.675Z,27.39
2023-05-21T11:14:44.803Z,27.36
2023-05-21T11:16:52.334Z,27.35
2023-05-21T11:19:04.522Z,27.30
2023-05-21T11:21:12.312Z,27.26
2023-05-21T11:23:18.196Z,27.24
2023-05-21T11:25:23.084Z,27.21
2023-05-21T11:27:36.075Z,27.20
2023-05-21T11:29:41.488Z,27.21
2023-05-21T11:31:49.461Z,27.20
2023-05-21T11:34:14.964Z,27.20
2023-05-21T11:36:19.828Z,27.20
2023-05-21T11:38:24.821Z,27.24
2023-05-21T11:40:31.180Z,27.26
2023-05-21T11:42:37.362Z,27.27
2023-05-21T11:44:42.964Z,27.29
2023-05-21T11:46:49.195Z,27.33
2023-05-21T11:48:55.565Z,27.37
2023-05-21T11:51:04.082Z,27.39
2023-05-21T11:53:09.229Z,27.41
2023-05-21T11:55:15.906Z,27.42
2023-05-21T11:57:21.573Z,27.44
2023-05-21T11:59:26.528Z,27.45
2023-05-21T12:01:31.352Z,27.46
2023-05-21T12:03:37.904Z,27.46
2023-05-21T12:05:47.958Z,27.45
2023-05-21T12:07:56.862Z,27.44
2023-05-21T12:10:01.818Z,27.42
2023-05-21T12:12:07.688Z,27.41
2023-05-21T12:14:13.457Z,27.40
2023-05-21T12:16:18.513Z,27.40
2023-05-21T12:18:24.129Z,27.40
2023-05-21T12:20:30.704Z,27.40
2023-05-21T12:22:35.921Z,27.39
2023-05-21T12:24:44.002Z,27.36
2023-05-21T12:26:49.751Z,27.34
2023-05-21T12:28:55.452Z,27.32
2023-05-21T12:31:00.409Z,27.31
2023-05-21T12:33:05.747Z,27.32
2023-05-21T12:35:11.689Z,27.32
2023-05-21T12:37:20.693Z,27.32
2023-05-21T12:39:25.581Z,27.33
2023-05-21T12:41:33.118Z,27.34
2023-05-21T12:43:37.978Z,27.33
2023-05-21T12:45:43.384Z,27.32
2023-05-21T12:47:56.567Z,27.29
2023-05-21T12:50:02.431Z,27.29
2023-05-21T12:52:09.009Z,27.28
2023-05-21T12:54:16.965Z,27.26
2023-05-21T12:56:21.961Z,27.27
2023-05-21T12:58:29.402Z,27.27
2023-05-21T13:00:36.168Z,27.28
2023-05-21T13:02:42.856Z,27.28
2023-05-21T13:04:49.650Z,27.27
2023-05-21T13:06:54.794Z,27.27
2023-05-21T13:08:59.548Z,27.27
2023-05-21T13:11:04.829Z,27.26
2023-05-21T13:13:09.827Z,27.26
2023-05-21T13:15:17.579Z,27.26
2023-05-21T13:17:23.021Z,27.25
2023-05-21T13:19:28.052Z,27.25
2023-05-21T13:21:32.948Z,27.25
2023-05-21T13:23:38.263Z,27.25
2023-05-21T13:25:43.191Z,27.25
2023-05-21T13:27:48.197Z,27.25
2023-05-21T13:29:53.019Z,27.24
2023-05-21T13:32:00.477Z,27.23
2023-05-21T13:34:05.652Z,27.22
2023-05-21T13:36:11.103Z,27.21
2023-05-21T13:38:16.055Z,27.20
2023-05-21T13:40:21.066Z,27.20
2023-05-21T13:42:26.343Z,27.19
2023-05-21T13:44:33.543Z,27.18
2023-05-21T13:46:39.708Z,27.20
2023-05-21T13:48:47.628Z,27.18
2023-05-21T13:50:52.789Z,27.20
2023-05-21T13:52:57.826Z,27.20
2023-05-21T13:55:02.754Z,27.21
2023-05-21T13:57:07.952Z,27.21
2023-05-21T13:59:12.808Z,27.21
2023-05-21T14:01:17.907Z,27.21
2023-05-21T14:03:23.221Z,27.21
2023-05-21T14:05:30.727Z,27.21
2023-05-21T14:07:35.897Z,27.22
2023-05-21T14:09:41.200Z,27.22
2023-05-21T14:11:46.573Z,27.22
2023-05-21T14:13:51.528Z,27.22
2023-05-21T14:15:56.835Z,27.22
2023-05-21T14:18:02.199Z,27.23
2023-05-21T14:20:07.895Z,27.21
2023-05-21T14:22:15.485Z,27.22
2023-05-21T14:24:20.261Z,27.21
2023-05-21T14:26:25.226Z,27.21
2023-05-21T14:28:30.187Z,27.21
2023-05-21T14:30:35.458Z,27.20
2023-05-21T14:32:40.953Z,27.20
2023-05-21T14:34:45.871Z,27.20
2023-05-21T14:36:50.655Z,27.18
2023-05-21T14:38:58.093Z,27.18
2023-05-21T14:41:03.201Z,27.18
2023-05-21T14:43:08.712Z,27.17
2023-05-21T14:45:19.063Z,27.16
2023-05-21T14:47:24.410Z,27.15
2023-05-21T14:49:29.264Z,27.17
2023-05-21T14:51:34.474Z,27.18
2023-05-21T14:53:39.527Z,27.16
2023-05-21T14:55:47.345Z,27.16
2023-05-21T14:57:52.107Z,27.15
2023-05-21T14:59:56.948Z,27.16
2023-05-21T15:02:02.091Z,27.15
2023-05-21T15:04:08.175Z,27.14
2023-05-21T15:06:15.627Z,27.13
2023-05-21T15:08:21.148Z,27.14
2023-05-21T15:10:27.072Z,27.14
2023-05-21T15:12:34.662Z,27.14
2023-05-21T15:14:40.140Z,27.15
2023-05-21T15:16:45.228Z,27.14
2023-05-21T15:18:50.457Z,27.14
2023-05-21T15:20:55.828Z,27.14
2023-05-21T15:25:10.497Z,27.15
2023-05-21T15:27:15.393Z,27.14
2023-05-21T15:29:23.195Z,27.13
2023-05-21T15:31:28.087Z,27.14
2023-05-21T15:33:33.204Z,27.13
2023-05-21T15:35:39.376Z,27.12
2023-05-21T15:37:45.649Z,27.13
2023-05-21T15:39:53.490Z,27.12
2023-05-21T15:41:58.586Z,27.11
2023-05-21T15:44:03.581Z,27.11
2023-05-21T15:46:12.782Z,27.10
2023-05-21T15:48:22.762Z,27.11
2023-05-21T15:50:27.700Z,27.11
2023-05-21T15:52:32.523Z,27.11
2023-05-21T15:54:37.340Z,27.13
2023-05-21T15:56:42.251Z,27.12
2023-05-21T15:58:47.345Z,27.12
2023-05-21T16:00:52.245Z,27.11
2023-05-21T16:02:59.809Z,27.11
2023-05-21T16:05:05.027Z,27.09
2023-05-21T16:07:10.110Z,27.09
2023-05-21T16:09:15.073Z,27.10
2023-05-21T16:11:20.082Z,27.09
2023-05-21T16:13:25.026Z,27.08
2023-05-21T16:15:32.551Z,27.07
2023-05-21T16:17:37.404Z,27.07
2023-05-21T16:19:44.940Z,27.06
2023-05-21T16:21:49.840Z,27.04
2023-05-21T16:23:55.037Z,27.04
2023-05-21T16:26:00.177Z,27.03
2023-05-21T16:28:05.066Z,27.02
2023-05-21T16:30:12.012Z,27.02
2023-05-21T16:32:17.174Z,27.01
2023-05-21T16:34:22.250Z,27.02
2023-05-21T16:36:29.914Z,27.00
2023-05-21T16:38:34.787Z,26.99
2023-05-21T16:40:40.788Z,26.97
2023-05-21T16:42:45.757Z,26.97
2023-05-21T16:44:50.913Z,26.99
2023-05-21T16:46:56.212Z,26.96
2023-05-21T16:49:01.544Z,26.94
2023-05-21T16:51:06.638Z,26.95
2023-05-21T16:53:14.094Z,26.91
2023-05-21T16:55:19.100Z,26.89
2023-05-21T16:57:24.358Z,26.88
2023-05-21T16:59:29.355Z,26.86
2023-05-21T17:01:34.540Z,26.85
2023-05-21T17:03:41.011Z,26.83
2023-05-21T17:05:48.286Z,26.81
2023-05-21T17:07:53.718Z,26.80
2023-05-21T17:10:01.529Z,26.78
2023-05-21T17:12:06.990Z,26.78
2023-05-21T17:14:13.644Z,26.75
2023-05-21T17:16:25.459Z,26.74
2023-05-21T17:18:31.689Z,26.73
2023-05-21T17:20:36.623Z,26.71
2023-05-21T17:22:41.927Z,26.71
2023-05-21T17:24:47.065Z,26.69
2023-05-21T17:26:56.371Z,26.68
2023-05-21T17:29:01.533Z,26.65
2023-05-21T17:31:07.265Z,26.63
2023-05-21T17:33:12.362Z,26.62
2023-05-21T17:35:17.627Z,26.61
2023-05-21T17:37:22.554Z,26.60
2023-05-21T17:39:27.946Z,26.59
2023-05-21T17:41:32.932Z,26.58
2023-05-21T17:43:40.398Z,26.55
2023-05-21T17:45:45.729Z,26.54
2023-05-21T17:47:50.780Z,26.53
2023-05-21T17:49:56.023Z,26.52
2023-05-21T17:52:03.412Z,26.50
2023-05-21T17:54:08.801Z,26.48
2023-05-21T17:56:14.101Z,26.48
2023-05-21T17:58:18.960Z,26.46
2023-05-21T18:00:26.767Z,26.44
2023-05-21T18:02:31.996Z,26.44
2023-05-21T18:04:37.064Z,26.43
2023-05-21T18:06:42.296Z,26.41
2023-05-21T18:08:47.358Z,26.40
2023-05-21T18:10:52.281Z,26.39
2023-05-21T18:12:57.468Z,26.37
2023-05-21T18:15:02.491Z,26.36
2023-05-21T18:17:10.080Z,26.34
2023-05-21T18:19:15.080Z,26.32
2023-05-21T18:21:20.147Z,26.30
2023-05-21T18:23:25.078Z,26.27
2023-05-21T18:25:30.332Z,26.25
2023-05-21T18:27:35.170Z,26.24
2023-05-21T18:29:40.190Z,26.22
2023-05-21T18:31:47.111Z,26.20
2023-05-21T18:33:55.109Z,26.17
2023-05-21T18:36:00.477Z,26.16
2023-05-21T18:38:10.049Z,26.13
2023-05-21T18:40:17.661Z,26.10
2023-05-21T18:42:22.460Z,26.08
2023-05-21T18:44:27.542Z,26.04
2023-05-21T18:46:32.477Z,26.03
2023-05-21T18:48:37.342Z,25.99
2023-05-21T18:50:45.169Z,25.96
2023-05-21T18:52:51.585Z,25.93
2023-05-21T18:54:57.144Z,25.90
2023-05-21T18:57:02.238Z,25.88
2023-05-21T18:59:07.897Z,25.86
2023-05-21T19:01:13.012Z,25.84
2023-05-21T19:03:18.166Z,25.82
2023-05-21T19:05:23.451Z,25.81
2023-05-21T19:07:31.119Z,25.76
2023-05-21T19:09:35.955Z,25.75
2023-05-21T19:11:40.911Z,25.73
2023-05-21T19:13:47.267Z,25.71
2023-05-21T19:15:52.219Z,25.68
2023-05-21T19:17:57.225Z,25.68
2023-05-21T19:20:02.303Z,25.67
2023-05-21T19:22:07.447Z,25.65
2023-05-21T19:24:14.998Z,25.61
2023-05-21T19:26:20.106Z,25.59
2023-05-21T19:28:25.171Z,25.57
2023-05-21T19:30:30.093Z,25.54
2023-05-21T19:32:35.369Z,25.53
2023-05-21T19:34:40.662Z,25.49
2023-05-21T19:36:53.406Z,25.48
2023-05-21T19:38:59.022Z,25.38
2023-05-21T19:41:06.467Z,25.37
2023-05-21T19:43:13.010Z,25.37
2023-05-21T19:45:18.182Z,25.35
2023-05-21T19:47:23.347Z,25.32
2023-05-21T19:49:28.360Z,25.31
2023-05-21T19:51:33.170Z,25.29
2023-05-21T19:53:38.373Z,25.25
2023-05-21T19:55:44.616Z,25.24
2023-05-21T19:57:52.379Z,25.21
2023-05-21T19:59:57.260Z,25.20
2023-05-21T20:02:02.497Z,25.18
2023-05-21T20:04:07.965Z,25.14
2023-05-21T20:06:12.941Z,25.12
2023-05-21T20:08:18.461Z,25.10
2023-05-21T20:10:24.165Z,25.08
2023-05-21T20:12:29.236Z,25.06
2023-05-21T20:14:37.022Z,25.03
2023-05-21T20:16:42.505Z,25.03
2023-05-21T20:18:48.254Z,24.98
2023-05-21T20:20:53.170Z,24.96
2023-05-21T20:23:03.377Z,24.93
2023-05-21T20:25:10.785Z,24.92
2023-05-21T20:27:19.647Z,24.90
2023-05-21T20:29:24.543Z,24.90
2023-05-21T20:31:32.481Z,24.88
2023-05-21T20:33:41.017Z,24.87
2023-05-21T20:35:46.058Z,24.83
2023-05-21T20:37:52.780Z,24.81
2023-05-21T20:39:58.427Z,24.80
2023-05-21T20:42:03.472Z,24.78
2023-05-21T20:44:09.390Z,24.76
2023-05-21T20:46:14.497Z,24.76
2023-05-21T20:48:22.316Z,24.74
2023-05-21T20:50:29.145Z,24.72
2023-05-21T20:52:37.225Z,24.71
2023-05-21T20:54:42.803Z,24.68
2023-05-21T20:56:50.937Z,24.66
2023-05-21T20:58:55.912Z,24.65
2023-05-21T21:01:02.243Z,24.64
2023-05-21T21:03:10.631Z,24.63
2023-05-21T21:05:20.245Z,24.60
2023-05-21T21:07:25.528Z,24.59
2023-05-21T21:09:30.698Z,24.58
2023-05-21T21:11:35.582Z,24.57
2023-05-21T21:13:41.113Z,24.56
2023-05-21T21:15:46.254Z,24.54
2023-05-21T21:17:51.503Z,24.56
2023-05-21T21:19:56.421Z,24.56
2023-05-21T21:22:04.198Z,24.55
2023-05-21T21:24:10.086Z,24.53
2023-05-21T21:26:15.015Z,24.53
2023-05-21T21:28:19.861Z,24.51
2023-05-21T21:30:24.792Z,24.49
2023-05-21T21:32:29.957Z,24.50
2023-05-21T21:34:34.848Z,24.49
2023-05-21T21:36:39.764Z,24.49
2023-05-21T21:38:47.393Z,24.46
2023-05-21T21:40:52.549Z,24.45
2023-05-21T21:42:57.481Z,24.44
2023-05-21T21:45:02.353Z,24.41
2023-05-21T21:47:07.909Z,24.40
2023-05-21T21:49:14.755Z,24.38
2023-05-21T21:51:23.207Z,24.36
2023-05-21T21:53:28.492Z,24.33
2023-05-21T21:55:36.200Z,24.32
2023-05-21T21:57:42.073Z,24.32
2023-05-21T21:59:46.995Z,24.29
2023-05-21T22:01:52.119Z,24.28
2023-05-21T22:03:58.065Z,24.26
2023-05-21T22:06:03.006Z,24.24
2023-05-21T22:08:08.675Z,24.20
2023-05-21T22:10:14.309Z,24.17
2023-05-21T22:12:22.846Z,24.14
2023-05-21T22:14:28.083Z,24.11
2023-05-21T22:16:33.592Z,24.10
2023-05-21T22:18:41.013Z,24.09
2023-05-21T22:20:46.876Z,24.07
2023-05-21T22:22:55.209Z,24.06
2023-05-21T22:25:00.577Z,24.03
2023-05-21T22:27:05.442Z,24.03
2023-05-21T22:29:13.605Z,24.02
2023-05-21T22:31:19.236Z,24.03
2023-05-21T22:33:24.563Z,24.03
2023-05-21T22:35:29.508Z,24.03
2023-05-21T22:37:34.905Z,24.04
2023-05-21T22:39:39.982Z,24.04
2023-05-21T22:41:45.032Z,24.04
2023-05-21T22:43:49.884Z,24.03
2023-05-21T22:45:57.540Z,24.01
2023-05-21T22:48:03.530Z,24.00
2023-05-21T22:50:10.429Z,24.00
2023-05-21T22:52:16.791Z,23.97
2023-05-21T22:54:21.700Z,23.95
2023-05-21T22:56:26.791Z,23.92
2023-05-21T22:58:31.897Z,23.91
2023-05-21T23:00:37.202Z,23.87
2023-05-21T23:02:45.006Z,23.84
2023-05-21T23:04:50.539Z,23.81
2023-05-21T23:06:55.463Z,23.79
2023-05-21T23:09:00.409Z,23.75
2023-05-21T23:11:05.413Z,23.70
2023-05-21T23:13:10.243Z,23.67
2023-05-21T23:15:15.468Z,23.64
2023-05-21T23:17:20.412Z,23.61
2023-05-21T23:19:28.162Z,23.57
2023-05-21T23:21:33.173Z,23.55
2023-05-21T23:23:38.064Z,23.52
2023-05-21T23:25:43.165Z,23.48
2023-05-21T23:27:48.236Z,23.45
2023-05-21T23:29:53.248Z,23.41
2023-05-21T23:31:58.412Z,23.37
2023-05-21T23:34:04.922Z,23.33
2023-05-21T23:36:13.428Z,23.28
2023-05-21T23:38:18.280Z,23.27
2023-05-21T23:40:23.480Z,23.23
2023-05-21T23:42:28.442Z,23.22
2023-05-21T23:44:33.429Z,23.20
2023-05-21T23:46:38.393Z,23.18
2023-05-21T23:48:43.344Z,23.16
2023-05-21T23:50:48.167Z,23.16
2023-05-21T23:52:55.871Z,23.12
2023-05-21T23:55:00.841Z,23.12
2023-05-21T23:57:05.742Z,23.12
2023-05-21T23:59:10.685Z,23.11
